Time;durP1;ratioP1;P1;durP2;ratioP2;P2;SDS_P1;SDS_P2;PMS_P1;PMS_P2;Temp;Humidity;BMP_temperature;BMP_pressure;BME280_temperature;BME280_humidity;BME280_pressure;Samples;Min_cycle;Max_cycle;Signal;HPM_P1;HPM_P2
2021/04/27 00:00:42;;;;;;;7.07;5.30;;;7.10;64.20;;;;;;2084205;28;20052;-67
2021/04/27 00:01:43;;;;;;;5.28;4.80;;;7.10;64.10;;;;;;2087674;28;20353;-67
2021/04/27 00:02:44;;;;;;;7.30;5.55;;;7.10;63.60;;;;;;2087051;28;20057;-67
2021/04/27 00:03:45;;;;;;;8.45;5.03;;;7.10;63.20;;;;;;2087710;28;20103;-67
2021/04/27 00:04:45;;;;;;;8.23;5.38;;;7.10;63.90;;;;;;2087924;28;20029;-67
2021/04/27 00:05:46;;;;;;;7.45;6.30;;;7.10;64.80;;;;;;2087793;28;20477;-67
2021/04/27 00:06:47;;;;;;;6.57;5.78;;;7.10;65.60;;;;;;2087716;28;20032;-67
2021/04/27 00:07:48;;;;;;;6.70;5.75;;;7.00;65.50;;;;;;2087846;28;20434;-67
2021/04/27 00:08:49;;;;;;;6.05;5.55;;;7.00;65.50;;;;;;2087666;28;20084;-67
2021/04/27 00:09:49;;;;;;;6.45;5.68;;;7.00;65.80;;;;;;2080624;28;20034;-67
2021/04/27 00:10:50;;;;;;;5.60;5.10;;;7.00;65.80;;;;;;2079373;28;20029;-67
2021/04/27 00:11:51;;;;;;;5.70;5.03;;;7.00;66.00;;;;;;2079458;28;20100;-67
2021/04/27 00:12:52;;;;;;;5.35;4.72;;;7.00;65.90;;;;;;2078706;28;20041;-67
2021/04/27 00:13:52;;;;;;;6.50;5.80;;;7.00;65.60;;;;;;2079890;28;20021;-67
2021/04/27 00:14:53;;;;;;;6.40;5.28;;;6.90;66.30;;;;;;2079516;28;20040;-67
2021/04/27 00:15:53;;;;;;;6.45;5.10;;;6.90;66.80;;;;;;2079760;28;20044;-67
2021/04/27 00:16:54;;;;;;;7.25;5.80;;;6.90;66.30;;;;;;2079488;28;20468;-67
2021/04/27 00:17:55;;;;;;;8.75;6.18;;;6.90;67.40;;;;;;2079542;28;20025;-67
2021/04/27 00:18:56;;;;;;;5.90;5.30;;;6.90;68.40;;;;;;2087259;28;20029;-67
2021/04/27 00:19:56;;;;;;;5.80;5.18;;;6.90;67.50;;;;;;2079397;28;20040;-67
2021/04/27 00:20:58;;;;;;;8.23;5.22;;;6.80;67.70;;;;;;2079301;28;20028;-67
2021/04/27 00:21:59;;;;;;;6.97;5.50;;;6.80;67.30;;;;;;2079506;28;20017;-67
2021/04/27 00:22:59;;;;;;;5.93;4.70;;;6.80;67.10;;;;;;2080343;28;20028;-67
2021/04/27 00:24:00;;;;;;;6.75;5.68;;;6.80;66.70;;;;;;2087738;28;20551;-67
2021/04/27 00:25:01;;;;;;;10.25;6.32;;;6.80;66.90;;;;;;2087769;28;20029;-67
2021/04/27 00:26:02;;;;;;;6.15;5.53;;;6.80;68.00;;;;;;2088339;28;20040;-67
2021/04/27 00:27:03;;;;;;;7.03;6.03;;;6.70;68.30;;;;;;2087367;28;20099;-67
2021/04/27 00:28:04;;;;;;;8.55;6.22;;;6.80;68.30;;;;;;2089274;28;20029;-67
2021/04/27 00:29:04;;;;;;;8.32;5.63;;;6.70;69.00;;;;;;2088498;28;20104;-67
2021/04/27 00:30:07;;;;;;;10.60;6.20;;;6.70;68.30;;;;;;2080905;28;20030;-67
2021/04/27 00:31:07;;;;;;;7.05;6.35;;;6.70;68.80;;;;;;2081012;28;20079;-67
2021/04/27 00:32:08;;;;;;;6.22;5.03;;;6.70;69.10;;;;;;2081251;28;20037;-67
2021/04/27 00:33:09;;;;;;;8.27;5.60;;;6.70;67.60;;;;;;2084856;28;20029;-67
2021/04/27 00:34:09;;;;;;;6.60;5.20;;;6.60;68.00;;;;;;2088846;28;20021;-67
2021/04/27 00:35:11;;;;;;;6.05;5.20;;;6.60;67.20;;;;;;2088948;28;20116;-68
2021/04/27 00:36:12;;;;;;;7.70;6.50;;;6.60;68.20;;;;;;2089259;28;20492;-67
2021/04/27 00:37:13;;;;;;;6.70;6.00;;;6.60;68.70;;;;;;2089643;28;20463;-67
2021/04/27 00:38:13;;;;;;;8.25;6.05;;;6.60;69.20;;;;;;2089184;28;20422;-67
2021/04/27 00:39:14;;;;;;;6.80;6.18;;;6.60;70.30;;;;;;2087075;28;20029;-67
2021/04/27 00:40:17;;;;;;;7.07;5.50;;;6.60;70.20;;;;;;2081421;28;20369;-67
2021/04/27 00:41:17;;;;;;;5.82;4.95;;;6.50;69.10;;;;;;2080843;28;20083;-67
2021/04/27 00:42:28;;;;;;;6.97;6.22;;;6.50;68.90;;;;;;2080747;28;20067;-67
2021/04/27 00:43:28;;;;;;;13.45;6.10;;;6.50;71.80;;;;;;2081088;28;20033;-67
2021/04/27 00:44:29;;;;;;;8.20;6.53;;;6.50;70.80;;;;;;2081292;28;20026;-67
2021/04/27 00:45:30;;;;;;;7.07;5.72;;;6.50;71.00;;;;;;2080997;28;20392;-67
2021/04/27 00:46:31;;;;;;;7.93;5.97;;;6.50;70.50;;;;;;2080997;28;20428;-67
2021/04/27 00:47:32;;;;;;;8.40;5.55;;;6.40;71.10;;;;;;2080702;28;20052;-67
2021/04/27 00:48:32;;;;;;;6.90;6.20;;;6.40;70.90;;;;;;2081207;28;20033;-67
2021/04/27 00:49:33;;;;;;;7.40;5.57;;;6.40;70.90;;;;;;2080845;28;20025;-67
2021/04/27 00:50:37;;;;;;;5.85;5.25;;;6.40;71.10;;;;;;2081701;28;20029;-67
2021/04/27 00:51:38;;;;;;;8.07;5.85;;;6.30;71.10;;;;;;2089067;28;20033;-67
2021/04/27 00:52:39;;;;;;;8.45;6.00;;;6.30;71.60;;;;;;2088806;28;20431;-67
2021/04/27 00:53:40;;;;;;;10.15;6.53;;;6.30;72.10;;;;;;2089097;28;20029;-67
2021/04/27 00:54:40;;;;;;;6.47;5.68;;;6.30;73.50;;;;;;2089117;28;20083;-67
2021/04/27 00:55:41;;;;;;;10.02;6.35;;;6.30;71.80;;;;;;2086584;28;20581;-67
2021/04/27 00:56:42;;;;;;;6.32;5.72;;;6.30;72.60;;;;;;2080968;28;20468;-67
2021/04/27 00:57:43;;;;;;;6.53;4.68;;;6.20;72.90;;;;;;2080957;28;20061;-67
2021/04/27 00:58:44;;;;;;;7.15;5.43;;;6.30;72.40;;;;;;2080746;28;20041;-67
2021/04/27 00:59:44;;;;;;;7.88;5.07;;;6.20;71.50;;;;;;2080727;28;20029;-67
2021/04/27 01:00:45;;;;;;;8.55;5.90;;;6.20;71.20;;;;;;2085519;28;20057;-68
2021/04/27 01:01:46;;;;;;;5.15;4.57;;;6.20;70.80;;;;;;2089033;28;20017;-67
2021/04/27 01:02:47;;;;;;;6.15;5.55;;;6.20;70.50;;;;;;2088670;28;20029;-67
2021/04/27 01:03:47;;;;;;;5.93;5.32;;;6.20;72.30;;;;;;2089057;28;20075;-67
2021/04/27 01:04:48;;;;;;;7.65;5.72;;;6.20;72.40;;;;;;2089176;28;20052;-67
2021/04/27 01:05:49;;;;;;;5.55;4.70;;;6.20;71.90;;;;;;2088867;28;20128;-67
2021/04/27 01:06:50;;;;;;;6.95;5.63;;;6.20;71.80;;;;;;2088244;28;20032;-67
2021/04/27 01:07:50;;;;;;;6.10;4.80;;;6.20;72.70;;;;;;2081075;28;20161;-67
2021/04/27 01:09:34;;;;;;;7.88;5.45;;;6.20;71.80;;;;;;2080549;28;20424;-67
2021/04/27 01:11:03;;;;;;;5.75;4.93;;;6.10;73.50;;;;;;2075587;28;20033;-67
2021/04/27 01:12:11;;;;;;;5.57;5.00;;;6.10;73.20;;;;;;2089163;28;20028;-67
2021/04/27 01:13:31;;;;;;;5.07;4.60;;;6.10;72.00;;;;;;2088824;28;20031;-67
2021/04/27 01:14:43;;;;;;;5.90;5.05;;;6.10;73.30;;;;;;2089220;28;20025;-67
2021/04/27 01:15:45;;;;;;;6.10;5.07;;;6.00;72.10;;;;;;2088958;28;20392;-67
2021/04/27 01:16:53;;;;;;;6.60;5.13;;;6.00;72.20;;;;;;2081980;28;20026;-67
2021/04/27 01:17:57;;;;;;;6.80;6.05;;;6.00;73.60;;;;;;2072790;28;20026;-67
2021/04/27 01:18:58;;;;;;;5.88;4.70;;;6.10;74.70;;;;;;2072471;28;20046;-68
2021/04/27 01:20:08;;;;;;;6.15;5.50;;;6.00;73.10;;;;;;2082894;28;20049;-67
2021/04/27 01:21:11;;;;;;;7.38;5.15;;;6.00;74.30;;;;;;2088979;28;20025;-67
2021/04/27 01:22:19;;;;;;;9.77;5.53;;;6.00;73.50;;;;;;2079460;28;20052;-67
2021/04/27 01:23:40;;;;;;;6.15;5.15;;;6.00;73.30;;;;;;2079300;28;20440;-67
2021/04/27 01:24:51;;;;;;;8.80;5.90;;;6.00;73.90;;;;;;2074781;28;20042;-67
2021/04/27 01:25:55;;;;;;;;;;;5.90;74.60;;;;;;2081308;28;20022;-67
2021/04/27 01:26:58;;;;;;;7.95;5.65;;;5.80;78.30;;;;;;2080719;28;19915;-67
2021/04/27 01:27:59;;;;;;;5.25;4.68;;;5.90;74.60;;;;;;2080951;28;20026;-67
2021/04/27 01:29:01;;;;;;;7.03;4.95;;;5.90;73.60;;;;;;2080750;28;20465;-67
2021/04/27 01:30:04;;;;;;;6.07;5.47;;;5.90;73.80;;;;;;2080850;28;20025;-67
2021/04/27 01:31:06;;;;;;;7.40;5.53;;;5.90;75.00;;;;;;2080830;28;20022;-67
2021/04/27 01:32:07;;;;;;;7.57;5.05;;;5.90;74.90;;;;;;2079847;28;20022;-67
2021/04/27 01:33:21;;;;;;;5.45;4.95;;;5.90;75.70;;;;;;2085369;28;20476;-67
2021/04/27 01:34:26;;;;;;;9.98;5.22;;;5.90;76.30;;;;;;2088499;28;20039;-67
2021/04/27 01:35:27;;;;;;;5.55;4.72;;;5.80;77.00;;;;;;2088281;28;20079;-67
2021/04/27 01:36:28;;;;;;;7.05;5.22;;;5.80;76.40;;;;;;2088868;28;20017;-67
2021/04/27 01:37:29;;;;;;;6.28;5.53;;;5.80;75.90;;;;;;2088355;28;20104;-67
2021/04/27 01:38:38;;;;;;;8.68;5.95;;;5.80;77.10;;;;;;2088531;28;20021;-67
2021/04/27 01:39:39;;;;;;;8.27;5.10;;;5.80;77.90;;;;;;2076712;28;20033;-67
2021/04/27 01:40:40;;;;;;;6.25;5.35;;;5.80;76.80;;;;;;2080775;28;20037;-68
2021/04/27 01:41:41;;;;;;;7.68;5.93;;;5.80;76.50;;;;;;2081287;28;20431;-67
2021/04/27 01:42:43;;;;;;;7.40;6.00;;;5.80;77.90;;;;;;2083608;28;20046;-67
2021/04/27 01:43:46;;;;;;;14.45;5.72;;;5.70;78.10;;;;;;2088819;28;20138;-67
2021/04/27 01:44:47;;;;;;;5.90;5.28;;;5.70;76.70;;;;;;2088975;28;20609;-67
2021/04/27 01:45:52;;;;;;;6.25;4.65;;;5.70;76.20;;;;;;2088583;28;20081;-67
2021/04/27 01:46:53;;;;;;;6.78;5.35;;;5.70;76.90;;;;;;2089134;28;20024;-68
2021/04/27 01:47:55;;;;;;;6.10;5.47;;;5.70;76.50;;;;;;2088145;28;20025;-67
2021/04/27 01:48:56;;;;;;;6.25;5.63;;;5.70;76.80;;;;;;2088704;28;20088;-67
2021/04/27 01:49:57;;;;;;;6.57;5.97;;;5.70;77.80;;;;;;2084601;28;21102;-67
2021/04/27 01:50:57;;;;;;;8.77;5.72;;;5.70;78.60;;;;;;2080339;28;20026;-67
2021/04/27 01:51:59;;;;;;;7.43;5.60;;;5.70;79.00;;;;;;2080560;28;20021;-67
2021/04/27 01:53:00;;;;;;;6.82;5.63;;;5.70;81.00;;;;;;2079880;28;20082;-67
2021/04/27 01:54:01;;;;;;;5.80;5.30;;;5.70;82.40;;;;;;2080697;28;20034;-67
2021/04/27 01:55:03;;;;;;;7.18;6.05;;;5.70;81.30;;;;;;2082360;28;20476;-67
2021/04/27 01:56:04;;;;;;;18.33;6.50;;;5.70;82.50;;;;;;2081584;28;20030;-67
2021/04/27 01:57:05;;;;;;;9.35;5.63;;;5.70;84.10;;;;;;2080370;28;20103;-67
2021/04/27 01:58:06;;;;;;;5.57;4.93;;;5.70;83.70;;;;;;2080017;28;20029;-67
2021/04/27 01:59:07;;;;;;;5.88;5.28;;;5.70;82.30;;;;;;2085978;28;20036;-67
2021/04/27 02:00:10;;;;;;;6.40;5.43;;;5.70;81.30;;;;;;2088434;28;20507;-67
2021/04/27 02:01:11;;;;;;;6.68;5.50;;;5.70;81.90;;;;;;2090134;28;20028;-67
2021/04/27 02:02:12;;;;;;;9.45;5.93;;;5.70;81.20;;;;;;2089582;28;20048;-67
2021/04/27 02:03:12;;;;;;;11.45;6.10;;;5.70;81.80;;;;;;2090219;28;20021;-67
2021/04/27 02:04:23;;;;;;;5.65;5.03;;;5.70;81.70;;;;;;2089879;28;20021;-67
2021/04/27 02:05:24;;;;;;;10.00;5.43;;;5.70;82.10;;;;;;2089955;28;20503;-67
2021/04/27 02:06:24;;;;;;;5.32;4.57;;;5.70;82.20;;;;;;2090050;28;20381;-67
2021/04/27 02:07:25;;;;;;;5.53;4.75;;;5.70;79.80;;;;;;2089864;28;20020;-67
2021/04/27 02:08:25;;;;;;;13.27;5.93;;;5.70;78.80;;;;;;2085422;28;20066;-67
2021/04/27 02:09:27;;;;;;;6.18;4.80;;;5.70;81.00;;;;;;2081918;28;20105;-67
2021/04/27 02:10:29;;;;;;;6.32;5.38;;;5.70;79.40;;;;;;2081743;28;20527;-67
2021/04/27 02:11:33;;;;;;;7.20;4.82;;;5.70;80.30;;;;;;2081977;28;20055;-67
2021/04/27 02:12:35;;;;;;;6.88;5.05;;;5.70;79.30;;;;;;2081144;28;20513;-67
2021/04/27 02:13:36;;;;;;;8.10;5.70;;;5.70;78.90;;;;;;2081791;28;20127;-67
2021/04/27 02:14:36;;;;;;;7.15;5.80;;;5.70;80.50;;;;;;2081639;28;20029;-67
2021/04/27 02:15:37;;;;;;;6.85;5.32;;;5.60;81.40;;;;;;2081559;28;20483;-68
2021/04/27 02:16:42;;;;;;;8.20;5.22;;;5.60;79.60;;;;;;2081443;28;20032;-67
2021/04/27 02:17:54;;;;;;;8.63;6.18;;;5.60;81.00;;;;;;2081874;28;20037;-67
2021/04/27 02:18:58;;;;;;;7.28;5.50;;;5.70;82.60;;;;;;2089624;28;20754;-67
2021/04/27 02:20:01;;;;;;;7.03;5.20;;;5.60;82.00;;;;;;2089776;28;20025;-67
2021/04/27 02:21:03;;;;;;;6.65;5.80;;;5.60;82.80;;;;;;2090050;28;20112;-67
2021/04/27 02:22:07;;;;;;;6.80;5.30;;;5.60;82.60;;;;;;2087375;28;20029;-67
2021/04/27 02:23:09;;;;;;;10.50;6.00;;;5.50;83.00;;;;;;2078244;28;20029;-67
2021/04/27 02:24:10;;;;;;;7.90;5.90;;;5.50;83.80;;;;;;2089890;28;20025;-67
2021/04/27 02:25:12;;;;;;;5.47;4.75;;;5.50;83.00;;;;;;2086676;28;20036;-67
2021/04/27 02:26:14;;;;;;;6.40;5.22;;;5.50;81.90;;;;;;2088858;28;20057;-67
2021/04/27 02:27:14;;;;;;;6.47;5.35;;;5.50;81.40;;;;;;2081385;28;20481;-67
2021/04/27 02:28:17;;;;;;;11.93;5.25;;;5.50;82.50;;;;;;2085978;28;20423;-67
2021/04/27 02:29:18;;;;;;;6.22;5.25;;;5.50;81.50;;;;;;2089938;28;20536;-67
2021/04/27 02:30:21;;;;;;;5.53;4.85;;;5.40;80.30;;;;;;2089791;28;20409;-67
2021/04/27 02:31:22;;;;;;;5.07;4.50;;;5.40;80.30;;;;;;2089859;28;20025;-67
2021/04/27 02:32:23;;;;;;;8.05;5.15;;;5.40;80.20;;;;;;2089434;28;20025;-67
2021/04/27 02:33:24;;;;;;;6.03;5.20;;;5.40;80.50;;;;;;2089700;28;20107;-67
2021/04/27 02:34:26;;;;;;;6.63;5.95;;;5.40;81.90;;;;;;2089816;28;20067;-67
2021/04/27 02:35:26;;;;;;;7.30;5.72;;;5.40;82.30;;;;;;2089042;28;20033;-67
2021/04/27 02:36:28;;;;;;;8.25;5.90;;;5.40;82.30;;;;;;2088590;28;20036;-67
2021/04/27 02:37:28;;;;;;;6.25;5.10;;;5.40;82.90;;;;;;2081349;28;20112;-67
2021/04/27 02:38:29;;;;;;;6.72;5.28;;;5.40;82.80;;;;;;2081627;28;20033;-67
2021/04/27 02:39:30;;;;;;;8.63;5.30;;;5.40;82.10;;;;;;2081530;28;20507;-67
2021/04/27 02:40:30;;;;;;;11.02;5.75;;;5.40;82.10;;;;;;2080628;28;20115;-67
2021/04/27 02:41:31;;;;;;;7.13;5.13;;;5.40;83.20;;;;;;2080920;28;20432;-67
2021/04/27 02:42:38;;;;;;;5.97;5.05;;;5.40;83.30;;;;;;2081093;28;20025;-67
2021/04/27 02:43:40;;;;;;;7.82;5.57;;;5.30;82.10;;;;;;2081578;28;20022;-67
2021/04/27 02:44:40;;;;;;;6.68;5.38;;;5.30;81.60;;;;;;2087202;28;20050;-67
2021/04/27 02:45:41;;;;;;;6.85;4.75;;;5.30;82.30;;;;;;2089566;28;20033;-67
2021/04/27 02:46:44;;;;;;;6.85;4.80;;;5.30;81.60;;;;;;2087135;28;20083;-67
2021/04/27 02:47:45;;;;;;;7.47;4.95;;;5.30;81.00;;;;;;2081310;28;20779;-67
2021/04/27 02:48:45;;;;;;;8.07;5.90;;;5.30;82.90;;;;;;2081153;28;20025;-67
2021/04/27 02:49:46;;;;;;;6.97;5.63;;;5.30;84.40;;;;;;2088926;28;20032;-67
2021/04/27 02:50:51;;;;;;;6.47;5.13;;;5.30;84.60;;;;;;2089540;28;20498;-67
2021/04/27 02:51:52;;;;;;;6.13;4.90;;;5.30;83.50;;;;;;2089702;28;20427;-67
2021/04/27 02:52:52;;;;;;;5.78;4.70;;;5.20;83.80;;;;;;2089148;28;20112;-67
2021/04/27 02:53:53;;;;;;;6.03;4.82;;;5.20;83.60;;;;;;2089223;28;20031;-67
2021/04/27 02:54:53;;;;;;;6.72;5.57;;;5.20;82.40;;;;;;2089839;28;20507;-67
2021/04/27 02:55:54;;;;;;;7.40;5.45;;;5.20;81.80;;;;;;2084358;28;20025;-67
2021/04/27 02:56:55;;;;;;;6.55;5.25;;;5.20;81.40;;;;;;2081463;28;20538;-67
2021/04/27 02:57:56;;;;;;;7.55;5.07;;;5.20;83.80;;;;;;2088761;28;20562;-67
2021/04/27 02:58:56;;;;;;;6.82;5.30;;;5.20;83.50;;;;;;2089206;28;20025;-67
2021/04/27 02:59:57;;;;;;;7.55;4.50;;;5.20;82.60;;;;;;2089295;28;20021;-67
2021/04/27 03:00:57;;;;;;;6.95;5.70;;;5.10;81.70;;;;;;2089714;28;20025;-67
2021/04/27 03:01:58;;;;;;;9.90;5.20;;;5.10;82.90;;;;;;2088668;28;20100;-67
2021/04/27 03:02:58;;;;;;;8.38;5.47;;;5.10;82.60;;;;;;2088269;28;20036;-67
2021/04/27 03:03:59;;;;;;;10.30;5.55;;;5.10;83.50;;;;;;2088951;28;20090;-67
2021/04/27 03:05:00;;;;;;;4.93;4.45;;;5.10;82.50;;;;;;2088372;28;20036;-67
2021/04/27 03:06:00;;;;;;;4.82;4.43;;;5.10;81.50;;;;;;2088536;28;20441;-67
2021/04/27 03:07:01;;;;;;;5.97;4.57;;;5.10;81.90;;;;;;2083589;28;20029;-67
2021/04/27 03:08:02;;;;;;;6.85;5.03;;;5.10;82.10;;;;;;2080580;28;20388;-67
2021/04/27 03:09:03;;;;;;;7.80;6.15;;;5.00;81.50;;;;;;2087062;28;20083;-67
2021/04/27 03:10:04;;;;;;;6.15;5.28;;;5.10;83.20;;;;;;2088301;28;20500;-67
2021/04/27 03:11:05;;;;;;;7.82;5.47;;;5.00;83.10;;;;;;2087658;28;20102;-67
2021/04/27 03:12:06;;;;;;;6.90;5.50;;;5.00;84.00;;;;;;2088103;28;20096;-67
2021/04/27 03:13:06;;;;;;;5.97;5.38;;;5.00;84.50;;;;;;2087663;28;20029;-67
2021/04/27 03:14:07;;;;;;;7.20;4.68;;;5.00;85.40;;;;;;2088415;28;20028;-67
2021/04/27 03:15:08;;;;;;;7.10;5.05;;;5.00;83.60;;;;;;2084633;28;20025;-67
2021/04/27 03:16:09;;;;;;;6.60;5.80;;;5.00;84.30;;;;;;2080367;28;20129;-67
2021/04/27 03:17:10;;;;;;;6.22;4.80;;;5.00;86.10;;;;;;2079566;28;20021;-67
2021/04/27 03:18:11;;;;;;;10.25;6.40;;;5.00;84.80;;;;;;2081594;28;20034;-67
2021/04/27 03:19:12;;;;;;;7.03;5.05;;;5.00;85.50;;;;;;2088087;28;20032;-67
2021/04/27 03:20:13;;;;;;;5.60;4.90;;;5.00;85.20;;;;;;2087523;28;20035;-67
2021/04/27 03:21:14;;;;;;;7.22;5.10;;;4.90;84.90;;;;;;2087663;28;20039;-67
2021/04/27 03:22:15;;;;;;;6.75;5.05;;;4.90;85.20;;;;;;2087782;28;20039;-67
2021/04/27 03:23:15;;;;;;;5.95;5.35;;;4.90;83.90;;;;;;2088184;28;20036;-67
2021/04/27 03:24:16;;;;;;;8.07;5.28;;;4.90;84.90;;;;;;2088134;28;20021;-67
2021/04/27 03:25:17;;;;;;;6.97;5.38;;;4.90;85.80;;;;;;2087846;28;20059;-67
2021/04/27 03:26:17;;;;;;;6.97;5.63;;;4.90;85.90;;;;;;2088137;28;20024;-67
2021/04/27 03:27:18;;;;;;;7.85;4.82;;;4.90;85.20;;;;;;2081508;28;20032;-67
2021/04/27 03:28:19;;;;;;;6.13;5.38;;;4.90;84.70;;;;;;2080124;28;20017;-67
2021/04/27 03:29:19;;;;;;;8.98;5.82;;;4.90;85.00;;;;;;2079796;28;20023;-67
2021/04/27 03:30:20;;;;;;;7.43;5.25;;;4.80;86.70;;;;;;2080077;28;20022;-67
2021/04/27 03:31:21;;;;;;;5.90;4.97;;;4.80;86.70;;;;;;2079874;28;20029;-67
2021/04/27 03:32:21;;;;;;;7.22;5.40;;;4.80;87.20;;;;;;2079264;28;20120;-67
2021/04/27 03:33:22;;;;;;;5.80;5.13;;;4.80;86.50;;;;;;2079723;28;20026;-67
2021/04/27 03:34:23;;;;;;;6.70;4.88;;;4.80;86.40;;;;;;2079766;28;20053;-67
2021/04/27 03:35:23;;;;;;;7.07;5.20;;;4.80;87.50;;;;;;2079888;28;20087;-67
2021/04/27 03:36:24;;;;;;;6.85;4.70;;;4.80;86.70;;;;;;2079962;28;20041;-67
2021/04/27 03:37:25;;;;;;;5.72;5.15;;;4.80;86.60;;;;;;2079101;28;20064;-67
2021/04/27 03:38:26;;;;;;;4.93;4.43;;;4.80;87.50;;;;;;2087423;28;20025;-67
2021/04/27 03:39:26;;;;;;;5.45;4.95;;;4.70;88.00;;;;;;2080614;28;20056;-67
2021/04/27 03:40:27;;;;;;;6.60;5.45;;;4.80;88.40;;;;;;2079502;28;20036;-67
2021/04/27 03:41:27;;;;;;;8.45;5.07;;;4.70;87.70;;;;;;2079996;28;20056;-67
2021/04/27 03:42:28;;;;;;;5.82;4.07;;;4.70;87.60;;;;;;2079865;28;20079;-67
2021/04/27 03:43:28;;;;;;;4.80;4.35;;;4.70;84.70;;;;;;2087646;28;20067;-67
2021/04/27 03:44:29;;;;;;;5.93;4.82;;;4.70;85.10;;;;;;2087780;28;20057;-67
2021/04/27 03:45:36;;;;;;;6.68;5.45;;;4.70;86.60;;;;;;2088234;28;20029;-67
2021/04/27 03:46:37;;;;;;;6.43;5.18;;;4.70;87.10;;;;;;2087360;28;20374;-67
2021/04/27 03:47:38;;;;;;;8.95;5.45;;;4.70;87.50;;;;;;2079890;28;20175;-67
2021/04/27 03:48:38;;;;;;;8.30;4.85;;;4.70;87.80;;;;;;2078239;28;20029;-67
2021/04/27 03:49:39;;;;;;;9.15;5.50;;;4.70;88.00;;;;;;2078871;28;20481;-67
2021/04/27 03:50:41;;;;;;;8.13;4.72;;;4.70;87.90;;;;;;2081996;28;20056;-67
2021/04/27 03:51:41;;;;;;;9.13;4.70;;;4.70;88.40;;;;;;2080851;28;20041;-67
2021/04/27 03:52:42;;;;;;;10.25;4.72;;;4.70;88.60;;;;;;2078306;28;20032;-67
2021/04/27 03:53:43;;;;;;;8.13;4.80;;;4.70;89.00;;;;;;2079190;28;20037;-67
2021/04/27 03:54:43;;;;;;;7.53;5.20;;;4.70;88.20;;;;;;2071532;28;20030;-67
2021/04/27 03:55:44;;;;;;;7.25;4.70;;;4.70;88.40;;;;;;2082252;28;20033;-68
2021/04/27 03:56:45;;;;;;;6.10;4.53;;;4.70;88.10;;;;;;2079343;28;20029;-67
2021/04/27 03:57:46;;;;;;;9.93;5.28;;;4.70;88.10;;;;;;2087006;28;20025;-67
2021/04/27 03:58:46;;;;;;;7.80;5.07;;;4.70;88.50;;;;;;2087865;28;20025;-67
2021/04/27 03:59:47;;;;;;;6.22;4.70;;;4.70;88.50;;;;;;2088318;28;20563;-67
2021/04/27 04:00:47;;;;;;;8.32;5.38;;;4.70;88.40;;;;;;2087162;28;20064;-67
2021/04/27 04:01:48;;;;;;;6.45;5.03;;;4.70;88.40;;;;;;2087173;28;20017;-67
2021/04/27 04:02:49;;;;;;;7.57;4.45;;;4.70;88.60;;;;;;2079007;28;20096;-67
2021/04/27 04:03:49;;;;;;;6.55;4.50;;;4.70;88.50;;;;;;2079722;28;20060;-67
2021/04/27 04:04:50;;;;;;;4.80;4.13;;;4.70;88.70;;;;;;2079535;28;20127;-67
2021/04/27 04:05:51;;;;;;;7.35;4.70;;;4.70;88.10;;;;;;2084992;28;20024;-67
2021/04/27 04:06:51;;;;;;;6.05;5.10;;;4.70;88.30;;;;;;2079173;28;20411;-67
2021/04/27 04:07:52;;;;;;;8.98;4.78;;;4.80;89.10;;;;;;2079775;28;20029;-67
2021/04/27 04:08:53;;;;;;;7.40;4.30;;;4.70;88.80;;;;;;2079294;28;20033;-67
2021/04/27 04:09:53;;;;;;;6.70;4.85;;;4.70;88.90;;;;;;2079871;28;20473;-67
2021/04/27 04:10:54;;;;;;;5.78;4.38;;;4.70;88.80;;;;;;2083694;28;20021;-67
2021/04/27 04:11:54;;;;;;;7.50;5.10;;;4.80;88.30;;;;;;2082275;28;20033;-67
2021/04/27 04:12:55;;;;;;;6.30;4.53;;;4.80;88.50;;;;;;2078899;28;20028;-67
2021/04/27 04:13:55;;;;;;;8.93;4.72;;;4.80;88.20;;;;;;2079723;28;20025;-67
2021/04/27 04:14:56;;;;;;;6.70;4.65;;;4.80;88.20;;;;;;2080109;28;20033;-67
2021/04/27 04:15:57;;;;;;;5.18;4.10;;;4.80;88.10;;;;;;2078871;28;20072;-67
2021/04/27 04:16:57;;;;;;;8.10;5.55;;;4.80;88.00;;;;;;2076317;28;20121;-67
2021/04/27 04:17:58;;;;;;;5.50;4.82;;;4.80;87.90;;;;;;2078809;28;20100;-67
2021/04/27 04:18:58;;;;;;;5.97;4.38;;;4.80;88.20;;;;;;2088070;28;20029;-67
2021/04/27 04:19:59;;;;;;;5.80;4.45;;;4.80;88.20;;;;;;2087733;28;20453;-67
2021/04/27 04:21:00;;;;;;;13.18;4.80;;;4.90;89.00;;;;;;2087873;28;20029;-67
2021/04/27 04:22:01;;;;;;;5.15;4.65;;;4.80;88.60;;;;;;2087775;28;20048;-67
2021/04/27 04:23:01;;;;;;;6.22;4.88;;;4.80;88.20;;;;;;2087270;28;20033;-67
2021/04/27 04:24:02;;;;;;;7.72;4.13;;;4.90;88.30;;;;;;2087757;28;20025;-67
2021/04/27 04:25:08;;;;;;;5.90;4.57;;;4.90;87.20;;;;;;2087965;28;20025;-67
2021/04/27 04:26:08;;;;;;;4.75;4.25;;;4.90;87.30;;;;;;2071334;28;20068;-67
2021/04/27 04:27:09;;;;;;;7.50;4.80;;;4.90;87.20;;;;;;2078970;28;20022;-67
2021/04/27 04:28:10;;;;;;;6.53;4.30;;;4.90;87.30;;;;;;2077258;28;20025;-67
2021/04/27 04:29:10;;;;;;;6.90;4.70;;;4.90;87.20;;;;;;2074619;28;20022;-67
2021/04/27 04:30:18;;;;;;;11.90;5.38;;;4.90;86.90;;;;;;2079514;28;20025;-67
2021/04/27 04:31:19;;;;;;;4.55;4.10;;;4.90;88.90;;;;;;2080157;28;20032;-67
2021/04/27 04:32:19;;;;;;;5.72;4.60;;;4.90;87.50;;;;;;2078146;28;20787;-67
2021/04/27 04:33:20;;;;;;;6.78;4.68;;;4.90;87.40;;;;;;2082626;28;20057;-67
2021/04/27 04:34:20;;;;;;;6.63;4.60;;;4.90;87.60;;;;;;2085256;28;20608;-67
2021/04/27 04:35:23;;;;;;;6.78;4.43;;;4.90;87.60;;;;;;2085284;28;20392;-67
2021/04/27 04:36:24;;;;;;;5.97;5.10;;;4.90;87.80;;;;;;2085055;28;20028;-67
2021/04/27 04:37:26;;;;;;;7.40;4.68;;;4.90;87.60;;;;;;2072820;28;20025;-67
2021/04/27 04:38:26;;;;;;;9.85;4.72;;;4.90;87.40;;;;;;2072505;28;20030;-67
2021/04/27 04:39:27;;;;;;;6.93;4.80;;;5.00;87.30;;;;;;2076056;28;20017;-68
2021/04/27 04:40:28;;;;;;;6.93;3.80;;;5.00;87.00;;;;;;2072108;28;20446;-67
2021/04/27 04:41:28;;;;;;;7.38;4.88;;;5.00;86.70;;;;;;2076504;28;20489;-67
2021/04/27 04:42:29;;;;;;;6.57;4.40;;;5.00;87.00;;;;;;2073827;28;20030;-67
2021/04/27 04:43:29;;;;;;;7.03;4.80;;;5.00;87.40;;;;;;2073616;28;20019;-67
2021/04/27 04:44:30;;;;;;;6.43;4.65;;;5.00;87.10;;;;;;2075501;28;20037;-67
2021/04/27 04:45:30;;;;;;;6.60;4.82;;;5.00;87.00;;;;;;2074094;28;20849;-67
2021/04/27 04:46:31;;;;;;;7.38;4.40;;;5.00;86.80;;;;;;2071449;28;20034;-67
2021/04/27 04:47:32;;;;;;;10.00;4.95;;;5.00;86.90;;;;;;2073018;28;20168;-67
2021/04/27 04:48:33;;;;;;;6.30;4.25;;;5.10;86.60;;;;;;2077007;28;20022;-67
2021/04/27 04:49:33;;;;;;;7.00;4.78;;;5.10;86.40;;;;;;2078758;28;20014;-67
2021/04/27 04:50:34;;;;;;;10.93;5.28;;;5.10;86.40;;;;;;2073042;28;20064;-67
2021/04/27 04:51:35;;;;;;;11.95;5.53;;;5.10;86.60;;;;;;2075083;28;20022;-67
2021/04/27 04:52:35;;;;;;;9.63;4.97;;;5.10;86.10;;;;;;2072377;28;20037;-67
2021/04/27 04:53:36;;;;;;;10.07;5.53;;;5.10;86.10;;;;;;2074755;28;20040;-67
2021/04/27 04:54:37;;;;;;;10.52;6.10;;;5.10;85.90;;;;;;2073420;28;20018;-67
2021/04/27 04:55:38;;;;;;;14.88;6.15;;;5.10;85.40;;;;;;2075286;28;20026;-67
2021/04/27 04:56:38;;;;;;;14.73;6.70;;;5.10;85.40;;;;;;2072946;28;20045;-67
2021/04/27 04:57:39;;;;;;;10.88;5.80;;;5.10;85.40;;;;;;2074784;28;20030;-67
2021/04/27 04:58:40;;;;;;;12.27;6.25;;;5.20;85.90;;;;;;2074320;28;20433;-67
2021/04/27 04:59:40;;;;;;;12.20;6.63;;;5.20;85.90;;;;;;2071441;28;20053;-67
2021/04/27 05:00:41;;;;;;;13.10;6.07;;;5.20;84.80;;;;;;2075995;28;20079;-67
2021/04/27 05:01:43;;;;;;;15.02;6.13;;;5.20;84.60;;;;;;2073121;28;20437;-67
2021/04/27 05:02:44;;;;;;;16.92;6.97;;;5.20;84.30;;;;;;2071963;28;20477;-67
2021/04/27 05:03:44;;;;;;;12.38;6.70;;;5.20;84.60;;;;;;2079878;28;20229;-67
2021/04/27 05:04:46;;;;;;;16.80;7.20;;;5.30;84.50;;;;;;2071861;28;20026;-68
2021/04/27 05:05:46;;;;;;;13.85;6.65;;;5.30;84.00;;;;;;2072715;28;20022;-67
2021/04/27 05:06:48;;;;;;;18.48;6.55;;;5.30;83.80;;;;;;2073121;28;20026;-67
2021/04/27 05:07:57;;;;;;;19.73;6.50;;;5.30;83.70;;;;;;2076480;28;20381;-67
2021/04/27 05:08:58;;;;;;;14.23;6.85;;;5.30;83.20;;;;;;2078676;28;20052;-67
2021/04/27 05:09:59;;;;;;;13.18;5.88;;;5.30;83.70;;;;;;2079601;28;20171;-67
2021/04/27 05:10:59;;;;;;;15.52;6.95;;;5.40;84.30;;;;;;2079832;28;20076;-67
2021/04/27 05:12:00;;;;;;;13.57;6.25;;;5.40;84.10;;;;;;2079293;28;20021;-67
2021/04/27 05:13:01;;;;;;;16.70;6.75;;;5.40;83.80;;;;;;2078891;28;20428;-67
2021/04/27 05:14:02;;;;;;;13.40;6.55;;;5.40;83.40;;;;;;2080681;28;20044;-67
2021/04/27 05:15:03;;;;;;;15.32;5.97;;;5.40;83.40;;;;;;2081098;28;20017;-67
2021/04/27 05:16:05;;;;;;;18.58;6.70;;;5.40;84.10;;;;;;2078763;28;20514;-67
2021/04/27 05:17:07;;;;;;;10.93;6.03;;;5.50;85.00;;;;;;2077466;28;20032;-67
2021/04/27 05:18:08;;;;;;;12.35;5.70;;;5.50;83.80;;;;;;2081137;28;20640;-67
2021/04/27 05:19:09;;;;;;;11.63;5.78;;;5.60;84.20;;;;;;2079278;28;20013;-67
2021/04/27 05:20:09;;;;;;;10.32;5.68;;;5.60;84.30;;;;;;2080435;28;20515;-67
2021/04/27 05:21:10;;;;;;;13.13;5.43;;;5.70;83.80;;;;;;2078576;28;20096;-67
2021/04/27 05:22:11;;;;;;;13.32;5.20;;;5.80;83.80;;;;;;2077330;28;20083;-67
2021/04/27 05:23:12;;;;;;;10.32;5.53;;;5.80;82.90;;;;;;2081438;28;20108;-67
2021/04/27 05:24:12;;;;;;;9.82;5.82;;;5.90;83.00;;;;;;2072735;28;20018;-67
2021/04/27 05:25:14;;;;;;;9.02;4.65;;;6.00;83.90;;;;;;2076931;28;20026;-67